createdAt,value
2023-01-11T00:00:59.415Z,2.06
2023-01-11T00:06:27.624Z,1.90
2023-01-11T00:09:15.324Z,1.77
2023-01-11T00:12:01.199Z,1.90
2023-01-11T00:14:47.017Z,2.03
2023-01-11T00:17:32.801Z,2.21
2023-01-11T00:20:18.598Z,2.29
2023-01-11T00:23:04.538Z,2.41
2023-01-11T00:25:50.377Z,2.49
2023-01-11T00:28:36.378Z,2.23
2023-01-11T00:31:22.244Z,2.61
2023-01-11T00:34:08.126Z,2.80
2023-01-11T00:36:54.093Z,2.82
2023-01-11T00:39:39.841Z,2.53
2023-01-11T00:42:25.773Z,2.56
2023-01-11T00:45:11.747Z,2.60
2023-01-11T00:47:57.484Z,2.64
2023-01-11T00:50:43.487Z,2.76
2023-01-11T00:53:29.387Z,2.84
2023-01-11T00:56:15.191Z,2.73
2023-01-11T00:59:01.100Z,2.89
2023-01-11T01:01:46.895Z,2.96
2023-01-11T01:04:32.847Z,3.28
2023-01-11T01:07:18.674Z,3.36
2023-01-11T01:10:04.702Z,3.21
2023-01-11T01:12:50.644Z,3.27
2023-01-11T01:15:36.525Z,3.41
2023-01-11T01:18:22.595Z,3.56
2023-01-11T01:21:08.449Z,3.67
2023-01-11T01:23:54.085Z,3.84
2023-01-11T01:26:40.130Z,3.91
2023-01-11T01:29:26.079Z,4.34
2023-01-11T01:32:12.130Z,3.86
2023-01-11T01:34:58.000Z,3.62
2023-01-11T01:37:43.757Z,3.67
2023-01-11T01:40:29.657Z,3.50
2023-01-11T01:43:15.443Z,3.43
2023-01-11T01:46:01.328Z,2.91
2023-01-11T01:48:47.301Z,2.65
2023-01-11T01:51:33.111Z,2.79
2023-01-11T01:54:18.909Z,2.41
2023-01-11T01:57:04.842Z,2.43
2023-01-11T01:59:50.651Z,2.16
2023-01-11T02:02:36.472Z,1.95
2023-01-11T02:05:22.455Z,2.02
2023-01-11T02:08:08.298Z,1.86
2023-01-11T02:10:54.292Z,1.60
2023-01-11T02:13:40.046Z,1.81
2023-01-11T02:16:25.999Z,2.03
2023-01-11T02:19:12.293Z,1.74
2023-01-11T02:21:58.152Z,1.91
2023-01-11T02:24:44.070Z,1.67
2023-01-11T02:27:29.990Z,1.68
2023-01-11T02:30:15.780Z,1.85
2023-01-11T02:33:01.659Z,1.79
2023-01-11T02:35:47.430Z,1.68
2023-01-11T02:38:33.357Z,1.79
2023-01-11T02:41:19.177Z,1.76
2023-01-11T02:44:04.966Z,1.68
2023-01-11T02:46:50.871Z,1.92
2023-01-11T02:49:36.799Z,1.77
2023-01-11T02:52:22.717Z,1.66
2023-01-11T02:55:08.658Z,1.58
2023-01-11T02:57:54.618Z,1.74
2023-01-11T03:00:40.478Z,1.43
2023-01-11T03:03:26.499Z,1.48
2023-01-11T03:06:12.324Z,1.34
2023-01-11T03:08:58.094Z,1.47
2023-01-11T03:11:43.902Z,1.49
2023-01-11T03:14:29.772Z,1.51
2023-01-11T03:17:15.603Z,1.63
2023-01-11T03:20:02.501Z,1.46
2023-01-11T03:22:48.377Z,1.54
2023-01-11T03:25:34.266Z,1.26
2023-01-11T03:28:20.107Z,1.50
2023-01-11T03:31:06.099Z,1.37
2023-01-11T03:33:51.970Z,1.35
2023-01-11T03:36:37.931Z,1.42
2023-01-11T03:39:23.719Z,1.21
2023-01-11T03:42:09.453Z,1.38
2023-01-11T03:44:55.344Z,1.44
2023-01-11T03:47:41.203Z,1.44
2023-01-11T03:50:27.110Z,1.51
2023-01-11T03:53:13.049Z,1.41
2023-01-11T03:55:58.877Z,1.35
2023-01-11T03:58:44.697Z,1.40
2023-01-11T04:01:30.660Z,1.39
2023-01-11T04:04:16.573Z,1.22
2023-01-11T04:07:02.363Z,1.29
2023-01-11T04:09:48.140Z,1.08
2023-01-11T04:12:34.076Z,0.95
2023-01-11T04:15:19.870Z,1.10
2023-01-11T04:18:05.661Z,1.06
2023-01-11T04:20:51.482Z,1.03
2023-01-11T04:23:37.248Z,0.88
2023-01-11T04:26:23.067Z,1.00
2023-01-11T04:29:08.870Z,1.06
2023-01-11T04:31:54.645Z,0.92
2023-01-11T04:34:40.643Z,0.99
2023-01-11T04:37:26.605Z,0.89
2023-01-11T04:40:12.469Z,0.96
2023-01-11T04:42:58.254Z,0.98
2023-01-11T04:45:44.100Z,0.96
2023-01-11T04:48:30.065Z,1.06
2023-01-11T04:51:18.054Z,0.81
2023-01-11T04:54:03.891Z,0.84
2023-01-11T04:56:49.793Z,0.74
2023-01-11T04:59:35.696Z,0.86
2023-01-11T05:02:21.422Z,0.69
2023-01-11T05:05:07.369Z,0.69
2023-01-11T05:07:53.191Z,0.69
2023-01-11T05:10:39.063Z,0.66
2023-01-11T05:13:24.972Z,0.70
2023-01-11T05:16:10.637Z,0.76
2023-01-11T05:18:56.516Z,0.61
2023-01-11T05:21:42.443Z,0.71
2023-01-11T05:24:28.252Z,0.71
2023-01-11T05:27:14.269Z,0.68
2023-01-11T05:30:00.047Z,0.72
2023-01-11T05:32:45.933Z,0.68
2023-01-11T05:35:31.866Z,0.53
2023-01-11T05:38:17.772Z,0.65
2023-01-11T05:41:03.577Z,0.63
2023-01-11T05:43:49.465Z,0.65
2023-01-11T05:46:37.202Z,0.85
2023-01-11T05:49:23.007Z,0.68
2023-01-11T05:52:08.739Z,0.76
2023-01-11T05:54:54.545Z,0.72
2023-01-11T05:57:40.492Z,0.82
2023-01-11T06:00:26.252Z,0.94
2023-01-11T06:03:12.125Z,0.92
2023-01-11T06:05:57.914Z,1.12
2023-01-11T06:08:43.744Z,1.15
2023-01-11T06:11:31.559Z,1.01
2023-01-11T06:14:17.377Z,0.98
2023-01-11T06:17:03.200Z,0.99
2023-01-11T06:19:49.036Z,1.00
2023-01-11T06:22:34.853Z,1.02
2023-01-11T06:25:20.821Z,1.00
2023-01-11T06:28:06.539Z,1.32
2023-01-11T06:30:52.522Z,1.41
2023-01-11T06:33:38.598Z,1.61
2023-01-11T06:36:24.320Z,1.73
2023-01-11T06:39:10.274Z,1.69
2023-01-11T06:41:56.223Z,1.60
2023-01-11T06:44:42.179Z,1.83
2023-01-11T06:47:28.151Z,1.77
2023-01-11T06:50:14.033Z,1.66
2023-01-11T06:52:59.889Z,2.04
2023-01-11T06:55:45.772Z,1.88
2023-01-11T06:58:31.450Z,2.06
2023-01-11T07:01:17.388Z,1.94
2023-01-11T07:04:03.653Z,1.95
2023-01-11T07:06:49.533Z,2.14
2023-01-11T07:09:35.523Z,2.03
2023-01-11T07:12:21.379Z,1.85
2023-01-11T07:15:07.335Z,1.80
2023-01-11T07:17:53.323Z,1.68
2023-01-11T07:20:39.291Z,1.82
2023-01-11T07:23:25.094Z,1.79
2023-01-11T07:26:10.926Z,1.81
2023-01-11T07:28:56.791Z,1.69
2023-01-11T07:31:42.724Z,1.46
2023-01-11T07:34:28.633Z,1.58
2023-01-11T07:37:28.547Z,1.59
2023-01-11T07:40:15.260Z,1.44
2023-01-11T07:43:01.220Z,1.40
2023-01-11T07:45:47.314Z,1.63
2023-01-11T07:48:33.372Z,1.42
2023-01-11T07:51:19.201Z,1.31
2023-01-11T07:54:05.015Z,1.50
2023-01-11T07:56:50.817Z,1.49
2023-01-11T07:59:36.715Z,1.40
2023-01-11T08:02:22.836Z,1.33
2023-01-11T08:05:09.009Z,1.31
2023-01-11T08:07:54.955Z,1.15
2023-01-11T08:10:42.191Z,1.06
2023-01-11T08:13:30.538Z,1.11
2023-01-11T08:16:16.562Z,1.12
2023-01-11T08:19:02.455Z,1.19
2023-01-11T08:21:48.230Z,1.09
2023-01-11T08:24:34.221Z,1.23
2023-01-11T08:27:19.966Z,1.20
2023-01-11T08:30:05.894Z,1.40
2023-01-11T08:32:51.905Z,1.58
2023-01-11T08:35:37.708Z,1.53
2023-01-11T08:38:23.694Z,1.64
2023-01-11T08:41:09.492Z,1.61
2023-01-11T08:43:55.256Z,1.62
2023-01-11T08:46:41.223Z,1.68
2023-01-11T08:49:27.028Z,1.80
2023-01-11T08:52:12.894Z,1.86
2023-01-11T08:54:58.760Z,1.82
2023-01-11T08:57:44.546Z,1.73
2023-01-11T09:00:30.574Z,1.81
2023-01-11T09:03:16.392Z,1.70
2023-01-11T09:06:02.534Z,1.54
2023-01-11T09:08:48.384Z,1.55
2023-01-11T09:11:34.229Z,1.61
2023-01-11T09:14:20.041Z,1.52
2023-01-11T09:17:05.845Z,1.46
2023-01-11T09:19:51.721Z,1.50
2023-01-11T09:22:37.643Z,1.30
2023-01-11T09:25:23.578Z,1.39
2023-01-11T09:28:09.469Z,1.43
2023-01-11T09:30:55.476Z,1.32
2023-01-11T09:33:41.404Z,1.22
2023-01-11T09:36:27.453Z,1.31
2023-01-11T09:39:13.376Z,1.28
2023-01-11T09:41:59.287Z,1.04
2023-01-11T09:44:45.012Z,1.27
2023-01-11T09:47:30.810Z,1.20
2023-01-11T09:50:18.730Z,1.34
2023-01-11T09:53:04.671Z,1.25
2023-01-11T09:55:50.429Z,1.23
2023-01-11T09:58:36.434Z,1.08
2023-01-11T10:01:22.452Z,1.17
2023-01-11T10:04:08.494Z,1.20
2023-01-11T10:06:54.710Z,1.15
2023-01-11T10:18:26.399Z,1.51
2023-01-11T10:19:25.659Z,1.45
2023-01-11T10:22:04.748Z,1.26
2023-01-11T10:24:50.684Z,1.22
2023-01-11T10:27:36.461Z,1.15
2023-01-11T10:30:22.414Z,1.11
2023-01-11T10:33:08.254Z,1.04
2023-01-11T10:35:54.176Z,1.20
2023-01-11T10:38:39.928Z,1.19
2023-01-11T10:41:25.788Z,1.19
2023-01-11T10:44:11.781Z,1.05
2023-01-11T10:46:57.672Z,1.41
2023-01-11T10:49:43.420Z,1.12
2023-01-11T10:52:29.262Z,1.26
2023-01-11T10:55:15.169Z,1.31
2023-01-11T10:58:02.736Z,1.27
2023-01-11T11:00:49.607Z,1.18
2023-01-11T11:03:35.468Z,1.40
2023-01-11T11:06:21.296Z,1.31
2023-01-11T11:09:07.254Z,1.67
2023-01-11T11:11:53.187Z,1.67
2023-01-11T11:14:39.153Z,1.67
2023-01-11T11:17:25.568Z,1.75
2023-01-11T11:20:11.372Z,1.98
2023-01-11T11:22:57.345Z,1.90
2023-01-11T11:25:43.515Z,2.24
2023-01-11T11:28:29.701Z,1.99
2023-01-11T11:31:15.778Z,1.94
2023-01-11T11:34:04.056Z,1.86
2023-01-11T11:36:50.050Z,1.71
2023-01-11T11:39:35.952Z,1.98
2023-01-11T11:42:21.745Z,1.74
2023-01-11T11:45:07.719Z,1.94
2023-01-11T11:47:53.716Z,1.90
2023-01-11T11:50:45.197Z,1.84
2023-01-11T11:53:31.429Z,1.99
2023-01-11T11:56:17.368Z,2.21
2023-01-11T11:59:03.132Z,2.09
2023-01-11T12:01:49.077Z,1.92
2023-01-11T12:04:35.005Z,1.77
2023-01-11T12:07:20.798Z,1.69
2023-01-11T12:10:06.683Z,1.83
2023-01-11T12:12:52.651Z,1.50
2023-01-11T12:15:38.453Z,1.39
2023-01-11T12:18:24.404Z,1.46
2023-01-11T12:21:10.182Z,1.22
2023-01-11T12:23:56.069Z,1.09
2023-01-11T12:26:42.173Z,1.12
2023-01-11T12:29:28.457Z,1.17
2023-01-11T12:32:14.589Z,1.07
2023-01-11T12:35:00.352Z,1.29
2023-01-11T12:37:46.193Z,1.22
2023-01-11T12:40:32.035Z,1.15
2023-01-11T12:43:17.897Z,1.15
2023-01-11T12:46:03.801Z,1.26
2023-01-11T12:48:49.815Z,1.16
2023-01-11T12:51:35.727Z,1.40
2023-01-11T12:54:21.606Z,1.30
2023-01-11T12:57:07.444Z,1.43
2023-01-11T12:59:53.382Z,1.18
2023-01-11T13:02:39.347Z,1.29
2023-01-11T13:05:25.203Z,1.22
2023-01-11T13:08:11.064Z,1.31
2023-01-11T13:10:57.163Z,1.46
2023-01-11T13:13:43.254Z,1.49
2023-01-11T13:16:29.198Z,1.62
2023-01-11T13:19:15.359Z,1.64
2023-01-11T13:22:01.275Z,1.80
2023-01-11T13:24:47.325Z,1.71
2023-01-11T13:27:33.191Z,2.02
2023-01-11T13:30:19.071Z,2.08
2023-01-11T13:33:04.952Z,2.17
2023-01-11T13:35:50.804Z,1.99
2023-01-11T13:38:36.740Z,2.22
2023-01-11T13:41:24.584Z,2.35
2023-01-11T13:44:10.458Z,2.46
2023-01-11T13:46:56.302Z,2.24
2023-01-11T13:49:42.202Z,2.77
2023-01-11T13:52:28.191Z,3.09
2023-01-11T13:55:20.810Z,2.95
2023-01-11T13:58:12.647Z,3.14
2023-01-11T14:00:58.637Z,3.21
2023-01-11T14:03:44.538Z,3.49
2023-01-11T14:06:30.580Z,3.27
2023-01-11T14:09:16.470Z,3.28
2023-01-11T14:12:02.308Z,3.15
2023-01-11T14:14:48.204Z,3.14
2023-01-11T14:17:34.136Z,3.24
2023-01-11T14:20:20.118Z,3.32
2023-01-11T14:23:06.198Z,3.05
2023-01-11T14:25:52.065Z,3.89
2023-01-11T14:28:37.976Z,3.44
2023-01-11T14:31:23.870Z,3.40
2023-01-11T14:34:09.869Z,4.11
2023-01-11T14:36:55.776Z,7.36
2023-01-11T14:39:41.623Z,4.78
2023-01-11T14:42:34.956Z,5.66
2023-01-11T14:45:21.357Z,4.85
2023-01-11T14:48:07.338Z,5.92
2023-01-11T14:50:52.997Z,4.96
2023-01-11T14:53:38.968Z,6.60
2023-01-11T14:56:24.897Z,6.61
2023-01-11T14:59:10.745Z,10.22
2023-01-11T15:01:56.669Z,6.81
2023-01-11T15:04:42.445Z,8.52
2023-01-11T15:07:28.342Z,6.39
2023-01-11T15:10:14.255Z,4.42
2023-01-11T15:13:00.077Z,3.72
2023-01-11T15:15:46.022Z,3.68
2023-01-11T15:18:31.919Z,3.40
2023-01-11T15:21:17.758Z,3.45
2023-01-11T15:24:03.885Z,3.23
2023-01-11T15:26:51.921Z,2.80
2023-01-11T15:29:38.109Z,2.78
2023-01-11T15:32:24.141Z,2.86
2023-01-11T15:35:09.921Z,2.90
2023-01-11T15:37:55.939Z,2.91
2023-01-11T15:40:42.025Z,3.07
2023-01-11T15:43:28.017Z,2.74
2023-01-11T15:46:13.896Z,2.70
2023-01-11T15:48:59.811Z,2.52
2023-01-11T15:51:45.572Z,2.83
2023-01-11T15:54:31.492Z,3.03
2023-01-11T15:57:17.385Z,2.62
2023-01-11T16:00:03.331Z,2.86
2023-01-11T16:02:49.343Z,2.66
2023-01-11T16:05:35.162Z,2.80
2023-01-11T16:08:21.087Z,2.48
2023-01-11T16:11:06.924Z,2.49
2023-01-11T16:13:52.778Z,2.84
2023-01-11T16:16:38.657Z,2.77
2023-01-11T16:19:24.469Z,2.88
2023-01-11T16:22:10.542Z,3.05
2023-01-11T16:24:56.456Z,3.43
2023-01-11T16:27:42.427Z,3.13
2023-01-11T16:30:28.320Z,3.30
2023-01-11T16:33:14.083Z,3.05
2023-01-11T16:35:59.943Z,3.29
2023-01-11T16:38:45.813Z,3.26
2023-01-11T16:41:31.695Z,3.47
2023-01-11T16:44:17.811Z,3.81
2023-01-11T16:47:03.515Z,3.64
2023-01-11T16:49:49.504Z,3.42
2023-01-11T16:52:35.352Z,3.91
2023-01-11T16:55:21.310Z,3.37
2023-01-11T16:58:07.358Z,3.39
2023-01-11T17:00:53.332Z,3.52
2023-01-11T17:03:39.249Z,3.84
2023-01-11T17:06:25.253Z,5.71
2023-01-11T17:09:16.228Z,25.85
2023-01-11T17:12:05.340Z,4.30
2023-01-11T17:14:51.175Z,15.25
2023-01-11T17:17:37.200Z,4.85
2023-01-11T17:20:23.272Z,3.61
2023-01-11T17:23:09.202Z,3.41
2023-01-11T17:25:55.165Z,2.93
2023-01-11T17:28:40.900Z,4.79
2023-01-11T17:31:26.928Z,7.89
2023-01-11T17:34:12.829Z,5.57
2023-01-11T17:36:58.660Z,3.51
2023-01-11T17:39:44.648Z,3.27
2023-01-11T17:42:30.477Z,8.65
2023-01-11T17:45:16.521Z,4.19
2023-01-11T17:48:02.492Z,5.67
2023-01-11T17:50:48.275Z,3.14
2023-01-11T17:53:34.179Z,2.48
2023-01-11T17:56:19.943Z,5.00
2023-01-11T17:59:05.845Z,2.42
2023-01-11T18:01:51.669Z,2.83
2023-01-11T18:04:37.453Z,2.56
2023-01-11T18:07:23.315Z,2.46
2023-01-11T18:10:09.249Z,2.74
2023-01-11T18:12:55.049Z,2.75
2023-01-11T18:15:40.976Z,2.79
2023-01-11T18:18:26.667Z,2.72
2023-01-11T18:21:14.555Z,2.94
2023-01-11T18:24:00.465Z,3.01
2023-01-11T18:26:46.279Z,3.02
2023-01-11T18:29:32.179Z,2.75
2023-01-11T18:32:18.095Z,2.68
2023-01-11T18:35:03.945Z,2.47
2023-01-11T18:37:49.757Z,2.35
2023-01-11T18:40:35.650Z,2.56
2023-01-11T18:43:21.533Z,2.80
2023-01-11T18:46:07.691Z,2.53
2023-01-11T18:48:55.558Z,3.09
2023-01-11T18:51:41.390Z,2.98
2023-01-11T18:54:27.253Z,3.20
2023-01-11T18:57:13.440Z,3.31
2023-01-11T18:59:59.385Z,3.65
2023-01-11T19:02:45.392Z,3.54
2023-01-11T19:05:31.202Z,4.10
2023-01-11T19:08:17.196Z,4.39
2023-01-11T19:11:03.193Z,4.57
2023-01-11T19:13:49.029Z,5.30
2023-01-11T19:16:34.888Z,4.75
2023-01-11T19:19:20.693Z,4.59
2023-01-11T19:22:06.570Z,4.49
2023-01-11T19:24:52.484Z,4.17
2023-01-11T19:27:38.273Z,4.05
2023-01-11T19:30:24.150Z,3.71
2023-01-11T19:33:09.866Z,4.26
2023-01-11T19:35:55.787Z,4.76
2023-01-11T19:38:41.660Z,4.36
2023-01-11T19:41:27.450Z,4.18
2023-01-11T19:44:13.475Z,4.16
2023-01-11T19:47:10.302Z,3.99
2023-01-11T19:49:57.275Z,3.83
2023-01-11T19:52:43.128Z,3.64
2023-01-11T19:55:28.974Z,3.57
2023-01-11T19:58:14.849Z,2.84
2023-01-11T20:01:00.573Z,2.76
2023-01-11T20:03:46.391Z,2.25
2023-01-11T20:06:32.324Z,2.16
2023-01-11T20:09:18.012Z,1.83
2023-01-11T20:12:03.935Z,1.92
2023-01-11T20:14:49.619Z,1.91
2023-01-11T20:17:35.605Z,2.19
2023-01-11T20:20:21.510Z,2.93
2023-01-11T20:23:07.414Z,4.02
2023-01-11T20:25:53.279Z,5.00
2023-01-11T20:28:39.033Z,6.59
2023-01-11T20:31:24.929Z,8.65
2023-01-11T20:34:10.888Z,11.01
2023-01-11T20:36:56.764Z,11.22
2023-01-11T20:39:42.681Z,13.13
2023-01-11T20:42:29.571Z,13.28
2023-01-11T20:45:15.564Z,10.06
2023-01-11T20:48:01.522Z,10.86
2023-01-11T20:50:47.289Z,10.63
2023-01-11T20:53:33.329Z,9.38
2023-01-11T20:56:19.350Z,7.94
2023-01-11T20:59:07.294Z,7.85
2023-01-11T21:01:53.234Z,9.14
2023-01-11T21:04:39.191Z,10.08
2023-01-11T21:07:24.930Z,10.78
2023-01-11T21:10:10.953Z,9.36
2023-01-11T21:12:56.919Z,9.55
2023-01-11T21:15:42.881Z,12.17
2023-01-11T21:18:28.846Z,11.66
2023-01-11T21:21:14.680Z,11.29
2023-01-11T21:24:00.692Z,11.06
2023-01-11T21:26:46.620Z,9.64
2023-01-11T21:29:32.411Z,10.38
2023-01-11T21:32:18.409Z,10.41
2023-01-11T21:35:04.352Z,9.95
2023-01-11T21:37:50.299Z,9.88
2023-01-11T21:40:36.161Z,9.42
2023-01-11T21:43:21.922Z,9.88
2023-01-11T21:46:07.783Z,9.49
2023-01-11T21:48:53.754Z,8.19
2023-01-11T21:51:39.539Z,7.92
2023-01-11T21:54:25.560Z,7.71
2023-01-11T21:57:11.438Z,8.33
2023-01-11T21:59:57.289Z,8.65
2023-01-11T22:02:43.254Z,9.17
2023-01-11T22:05:29.053Z,8.90
2023-01-11T22:08:15.004Z,9.20
2023-01-11T22:11:02.916Z,9.95
2023-01-11T22:13:48.808Z,9.35
2023-01-11T22:16:34.729Z,9.25
2023-01-11T22:19:20.707Z,8.35
2023-01-11T22:22:06.544Z,8.03
2023-01-11T22:24:52.522Z,7.72
2023-01-11T22:27:38.373Z,7.53
2023-01-11T22:30:24.262Z,6.99
2023-01-11T22:33:10.379Z,7.03
2023-01-11T22:35:58.122Z,7.05
2023-01-11T22:38:44.147Z,6.91
2023-01-11T22:41:30.018Z,6.91
2023-01-11T22:44:15.717Z,7.26
2023-01-11T22:47:01.619Z,7.04
2023-01-11T22:49:47.401Z,6.81
2023-01-11T22:52:33.322Z,7.73
2023-01-11T22:55:19.336Z,6.72
2023-01-11T22:58:05.267Z,6.73
2023-01-11T23:00:51.215Z,6.29
2023-01-11T23:03:37.104Z,5.40
2023-01-11T23:06:23.064Z,5.15
2023-01-11T23:09:09.046Z,5.12
2023-01-11T23:11:54.913Z,4.25
2023-01-11T23:14:40.794Z,3.89
2023-01-11T23:17:26.714Z,3.81
2023-01-11T23:20:12.521Z,3.50
2023-01-11T23:22:58.449Z,3.82
2023-01-11T23:25:44.335Z,3.41
2023-01-11T23:28:30.080Z,3.62
2023-01-11T23:31:15.910Z,3.43
2023-01-11T23:34:01.634Z,3.23
2023-01-11T23:36:47.528Z,3.20
2023-01-11T23:39:33.386Z,3.38
2023-01-11T23:42:19.246Z,2.98
2023-01-11T23:45:05.138Z,2.96
2023-01-11T23:47:51.160Z,2.71
2023-01-11T23:50:36.955Z,2.85
2023-01-11T23:53:23.267Z,2.86
2023-01-11T23:56:09.109Z,2.94
2023-01-11T23:58:54.917Z,2.55
